Time;durP1;ratioP1;P1;durP2;ratioP2;P2;SDS_P1;SDS_P2;PMS_P1;PMS_P2;Temp;Humidity;BMP_temperature;BMP_pressure;BME280_temperature;BME280_humidity;BME280_pressure;Samples;Min_cycle;Max_cycle;Signal;HPM_P1;HPM_P2
2023/11/28 00:02:16;;;;;;;71.80;29.00;;;;;;;-5.42;70.24;99465.53;106156;1291;59007;-59
2023/11/28 00:05:03;;;;;;;82.60;34.80;;;;;;;-5.39;70.07;99469.14;106195;1289;58998;-59
2023/11/28 00:07:49;;;;;;;72.40;31.30;;;;;;;-5.37;69.84;99464.16;106150;1291;73177;-59
2023/11/28 00:10:36;;;;;;;75.30;30.00;;;;;;;-5.35;70.36;99461.39;106179;1289;67223;-58
2023/11/28 00:13:26;;;;;;;63.50;27.40;;;;;;;-5.32;70.06;99463.31;106162;1290;71414;-60
2023/11/28 00:16:12;;;;;;;75.60;32.60;;;;;;;-5.28;70.99;99464.74;106107;1290;59457;-59
2023/11/28 00:18:58;;;;;;;73.00;31.60;;;;;;;-5.25;70.61;99462.98;106207;1289;59828;-59
2023/11/28 00:21:45;;;;;;;67.40;29.20;;;;;;;-5.23;70.75;99461.53;106186;1291;73540;-59
2023/11/28 00:24:31;;;;;;;77.10;31.00;;;;;;;-5.22;71.27;99461.57;106166;1291;68135;-59
2023/11/28 00:27:17;;;;;;;66.90;29.50;;;;;;;-5.21;70.52;99458.58;106175;1290;72455;-59
2023/11/28 00:30:04;;;;;;;72.30;30.60;;;;;;;-5.20;71.03;99456.58;106174;1291;59349;-59
2023/11/28 00:32:50;;;;;;;64.40;27.20;;;;;;;-5.19;70.90;99454.06;106153;1292;60196;-59
2023/11/28 00:35:37;;;;;;;68.30;31.40;;;;;;;-5.17;70.64;99454.78;106151;1291;73304;-58
2023/11/28 00:38:24;;;;;;;80.60;33.10;;;;;;;-5.15;70.77;99446.96;106179;1292;67475;-59
2023/11/28 00:41:11;;;;;;;68.80;29.80;;;;;;;-5.08;71.17;99445.97;106171;1291;70598;-60
2023/11/28 00:43:57;;;;;;;61.30;27.80;;;;;;;-5.01;71.38;99442.13;106214;1289;59573;-59
2023/11/28 00:46:44;;;;;;;65.60;29.00;;;;;;;-4.97;71.22;99442.90;106192;1289;59291;-59
2023/11/28 00:49:30;;;;;;;68.90;29.70;;;;;;;-4.94;70.68;99438.95;106172;1291;73143;-59
2023/11/28 00:52:17;;;;;;;70.50;31.80;;;;;;;-4.90;71.05;99438.40;106186;1290;67461;-59
2023/11/28 00:55:03;;;;;;;65.20;27.80;;;;;;;-4.85;71.29;99434.84;106162;1291;71819;-59
2023/11/28 00:57:49;;;;;;;69.30;30.40;;;;;;;-4.81;70.82;99430.75;106062;1289;59089;-60
2023/11/28 01:00:35;;;;;;;61.80;27.70;;;;;;;-4.74;71.00;99433.61;106191;1292;59229;-59
2023/11/28 01:03:22;;;;;;;63.30;28.80;;;;;;;-4.69;70.92;99426.35;106195;1291;73544;-60
2023/11/28 01:06:08;;;;;;;74.00;30.70;;;;;;;-4.61;70.93;99426.67;106194;1290;67441;-59
2023/11/28 01:08:57;;;;;;;68.70;30.30;;;;;;;-4.56;71.08;99427.83;106170;1289;71347;-59
2023/11/28 01:11:43;;;;;;;64.30;28.00;;;;;;;-4.50;71.22;99426.78;106191;1289;58847;-60
2023/11/28 01:14:31;;;;;;;54.60;27.70;;;;;;;-4.44;71.20;99425.94;106189;1290;59700;-59
2023/11/28 01:17:17;;;;;;;57.50;26.80;;;;;;;-4.39;71.49;99421.70;106195;1291;73206;-59
2023/11/28 01:20:03;;;;;;;;;;;;;;;-4.32;72.03;99411.59;106092;1292;67593;-60
2023/11/28 01:22:49;;;;;;;59.10;26.70;;;;;;;-4.27;71.36;99404.98;106182;1289;71449;-60
2023/11/28 01:25:35;;;;;;;;;;;;;;;-4.22;71.33;99400.07;106149;1292;59302;-59
2023/11/28 01:28:21;;;;;;;44.60;21.80;;;;;;;-4.16;71.37;99399.17;106194;1289;59227;-57
2023/11/28 01:31:09;;;;;;;;;;;;;;;-4.11;72.89;99399.44;106168;1291;72371;-59
2023/11/28 01:33:55;;;;;;;47.40;22.20;;;;;;;-4.08;72.26;99391.61;106189;1289;67426;-59
2023/11/28 01:36:43;;;;;;;;;;;;;;;-4.07;72.21;99389.79;106161;1290;71280;-59
2023/11/28 01:39:29;;;;;;;50.60;22.10;;;;;;;-4.07;71.58;99387.43;106166;1291;59233;-60
2023/11/28 01:42:15;;;;;;;;;;;;;;;-4.05;71.65;99383.77;106219;1290;59053;-60
2023/11/28 01:45:01;;;;;;;43.50;21.20;;;;;;;-4.03;72.05;99377.42;106173;1291;73357;-60
2023/11/28 01:47:47;;;;;;;;;;;;;;;-4.05;72.53;99371.80;106193;1289;66257;-59
2023/11/28 01:50:33;;;;;;;45.10;21.10;;;;;;;-4.10;72.47;99366.84;106162;1290;71385;-56
2023/11/28 01:53:20;;;;;;;;;;;;;;;-4.13;71.85;99365.09;106215;1291;59063;-60
2023/11/28 01:56:07;;;;;;;44.30;20.50;;;;;;;-4.13;71.68;99362.20;106176;1290;59394;-60
2023/11/28 01:58:54;;;;;;;47.70;22.10;;;;;;;-4.16;71.84;99367.04;106142;1291;74339;-59
2023/11/28 02:01:43;;;;;;;43.10;20.70;;;;;;;-4.19;71.74;99365.81;106205;1290;68622;-59
2023/11/28 02:04:29;;;;;;;43.70;22.50;;;;;;;-4.23;72.03;99367.74;104872;1291;70419;-59
2023/11/28 02:07:15;;;;;;;39.60;20.60;;;;;;;-4.27;72.01;99361.08;104749;1292;60104;-57
2023/11/28 02:10:02;;;;;;;46.90;21.70;;;;;;;-4.32;71.93;99362.30;104770;1291;59894;-56
2023/11/28 02:12:48;;;;;;;42.60;21.20;;;;;;;-4.35;71.91;99361.05;106186;1292;73465;-59
2023/11/28 02:15:46;;;;;;;;;;;;;;;-4.39;71.67;99361.98;106195;1290;67467;-60
2023/11/28 02:18:32;;;;;;;44.90;20.80;;;;;;;-4.42;72.05;99355.00;106195;1290;71128;-59
2023/11/28 02:21:18;;;;;;;;;;;;;;;-4.41;71.85;99354.52;106193;1291;58981;-58
2023/11/28 02:24:11;;;;;;;42.70;20.10;;;;;;;-4.37;72.01;99353.45;106195;1290;59631;-59
2023/11/28 02:26:57;;;;;;;45.20;21.20;;;;;;;-4.31;73.10;99352.08;106185;1291;74592;-59
2023/11/28 02:29:46;;;;;;;;;;;;;;;-4.22;72.67;99353.95;106214;1289;67203;-59
2023/11/28 02:32:32;;;;;;;38.70;18.40;;;;;;;-4.14;74.11;99349.74;106073;1290;72589;-60
2023/11/28 02:35:18;;;;;;;;;;;;;;;-4.04;72.88;99351.64;106225;1291;58963;-60
2023/11/28 02:38:04;;;;;;;39.10;18.20;;;;;;;-3.94;72.85;99344.45;106222;1290;58847;-59
2023/11/28 02:40:50;;;;;;;41.90;19.70;;;;;;;-3.86;73.01;99340.08;106179;1289;73896;-59
2023/11/28 02:43:36;;;;;;;49.00;21.00;;;;;;;-3.81;73.11;99339.34;106170;1289;67881;-59
2023/11/28 02:46:23;;;;;;;40.90;21.30;;;;;;;-3.78;72.78;99337.07;106155;1290;71319;-59
2023/11/28 02:49:08;;;;;;;;;;;;;;;-3.72;72.74;99329.60;106177;1289;59066;-59
2023/11/28 02:51:55;;;;;;;45.90;18.80;;;;;;;-3.69;73.40;99327.98;106169;1290;58928;-59
2023/11/28 02:54:41;;;;;;;;;;;;;;;-3.68;73.05;99322.63;106178;1290;73919;-59
2023/11/28 02:57:27;;;;;;;46.50;20.30;;;;;;;-3.64;73.72;99315.43;106198;1292;67935;-60
2023/11/28 03:00:13;;;;;;;;;;;;;;;-3.60;73.74;99312.79;106142;1289;72417;-60
2023/11/28 03:02:59;;;;;;;42.80;20.40;;;;;;;-3.55;73.54;99311.56;106035;1291;59047;-60
2023/11/28 03:05:45;;;;;;;;;;;;;;;-3.47;75.86;99316.77;106177;1291;60412;-60
2023/11/28 03:08:31;;;;;;;42.90;20.00;;;;;;;-3.41;74.79;99312.98;106130;1289;72233;-59
2023/11/28 03:11:17;;;;;;;;;;;;;;;-3.43;73.75;99308.94;106178;1290;69389;-60
2023/11/28 03:14:03;;;;;;;37.90;18.10;;;;;;;-3.46;74.28;99303.98;106191;1290;72993;-59
2023/11/28 03:16:49;;;;;;;;;;;;;;;-3.48;73.51;99303.77;106165;1290;59253;-60
2023/11/28 03:19:36;;;;;;;39.50;18.60;;;;;;;-3.52;73.31;99297.80;106200;1291;59076;-59
2023/11/28 03:22:22;;;;;;;40.00;19.70;;;;;;;-3.58;73.05;99296.16;106086;1291;73024;-59
2023/11/28 03:25:09;;;;;;;;;;;;;;;-3.65;73.04;99290.50;106185;1292;68495;-58
2023/11/28 03:27:55;;;;;;;38.90;17.10;;;;;;;-3.72;72.99;99285.51;106162;1290;71162;-60
2023/11/28 03:30:41;;;;;;;;;;;;;;;-3.76;73.09;99282.38;106197;1290;59440;-60
2023/11/28 03:33:27;;;;;;;40.10;17.80;;;;;;;-3.82;72.90;99274.51;105089;1291;61362;-59
2023/11/28 03:36:17;;;;;;;33.20;17.30;;;;;;;-3.86;72.91;99273.77;104812;1290;76573;-57
2023/11/28 03:39:05;;;;;;;39.50;18.00;;;;;;;-3.92;73.10;99266.07;106158;1289;68196;-58
2023/11/28 03:41:51;;;;;;;41.90;18.40;;;;;;;-3.96;72.82;99263.29;106186;1292;71179;-60
2023/11/28 03:44:37;;;;;;;;;;;;;;;-4.02;73.76;99264.19;106150;1290;59944;-59
2023/11/28 03:47:24;;;;;;;33.80;16.50;;;;;;;-4.05;73.82;99259.23;106168;1290;58850;-59
2023/11/28 03:50:10;;;;;;;;;;;;;;;-4.07;73.63;99257.02;106196;1289;73541;-59
2023/11/28 03:52:57;;;;;;;43.10;18.10;;;;;;;-4.08;73.56;99253.79;106173;1290;67268;-59
2023/11/28 03:55:42;;;;;;;;;;;;;;;-4.09;73.40;99255.95;106173;1290;72600;-60
2023/11/28 03:58:29;;;;;;;38.40;18.70;;;;;;;-4.08;74.56;99259.34;106175;1290;58338;-59
2023/11/28 04:01:15;;;;;;;37.40;18.80;;;;;;;-4.09;75.92;99255.11;106171;1289;58998;-59
2023/11/28 04:04:01;;;;;;;;;;;;;;;-4.09;75.38;99257.48;106237;1291;73108;-60
2023/11/28 04:06:47;;;;;;;38.70;19.10;;;;;;;-4.06;74.86;99253.16;106184;1291;67566;-60
2023/11/28 04:09:33;;;;;;;;;;;;;;;-4.06;73.97;99252.83;106136;1289;71371;-59
2023/11/28 04:12:19;;;;;;;42.30;19.30;;;;;;;-4.05;74.03;99256.02;106179;1289;58982;-60
2023/11/28 04:15:06;;;;;;;43.20;21.20;;;;;;;-4.07;73.93;99256.52;106295;1289;59143;-59
2023/11/28 04:17:52;;;;;;;41.80;21.00;;;;;;;-4.06;74.11;99258.71;106281;1289;73397;-59
2023/11/28 04:20:38;;;;;;;;;;;;;;;-4.06;73.93;99258.21;106317;1289;67200;-58
2023/11/28 04:23:24;;;;;;;39.30;20.60;;;;;;;-4.06;74.63;99260.90;106314;1288;71139;-59
2023/11/28 04:26:10;;;;;;;;;;;;;;;-4.05;75.11;99255.70;106303;1288;58984;-59
2023/11/28 04:28:56;;;;;;;48.70;24.10;;;;;;;-4.04;74.23;99253.70;106157;1289;58992;-59
2023/11/28 04:31:42;;;;;;;;;;;;;;;-4.03;74.02;99249.52;106306;1288;73396;-59
2023/11/28 04:34:28;;;;;;;51.70;24.70;;;;;;;-4.01;73.92;99252.92;106312;1288;68637;-59
2023/11/28 04:37:14;;;;;;;53.90;26.10;;;;;;;-4.02;74.44;99248.04;106269;1289;71217;-60
2023/11/28 04:40:01;;;;;;;;;;;;;;;-4.02;74.30;99243.48;106286;1288;59524;-60
2023/11/28 04:42:47;;;;;;;46.30;22.90;;;;;;;-4.04;74.09;99239.41;106284;1288;60776;-60
2023/11/28 04:45:33;;;;;;;;;;;;;;;-4.03;74.30;99240.42;106386;1287;73521;-59
2023/11/28 04:48:19;;;;;;;44.00;22.30;;;;;;;-4.03;74.11;99244.29;106316;1288;68934;-59
2023/11/28 04:51:06;;;;;;;49.40;22.50;;;;;;;-4.04;73.86;99243.93;106333;1291;71337;-59
2023/11/28 04:53:52;;;;;;;32.70;18.60;;;;;;;-4.05;73.92;99241.39;106341;1287;59019;-58
2023/11/28 04:56:38;;;;;;;;;;;;;;;-4.07;73.98;99239.35;106359;1288;60383;-59
2023/11/28 04:59:24;;;;;;;37.50;18.50;;;;;;;-4.07;74.03;99237.66;106333;1288;73432;-60
2023/11/28 05:02:09;;;;;;;;;;;;;;;-4.07;73.89;99239.34;106322;1288;67180;-60
2023/11/28 05:04:56;;;;;;;37.90;18.00;;;;;;;-4.07;73.97;99239.52;106304;1288;71522;-60
2023/11/28 05:07:42;;;;;;;38.50;18.70;;;;;;;-4.08;74.51;99240.32;106344;1289;59131;-60
2023/11/28 05:10:28;;;;;;;;;;;;;;;-4.08;74.93;99238.65;105378;1288;458706;-58
2023/11/28 05:13:14;;;;;;;40.90;19.30;;;;;;;-4.06;76.30;99233.80;104865;1291;73705;-57
2023/11/28 05:16:00;;;;;;;42.40;22.10;;;;;;;-4.01;76.54;99234.59;104908;1288;68661;-59
2023/11/28 05:18:47;;;;;;;34.70;19.40;;;;;;;-3.95;75.39;99232.67;104911;1291;71752;-57
2023/11/28 05:21:33;;;;;;;43.10;21.40;;;;;;;-3.91;75.74;99236.46;104866;1289;61706;-59
2023/11/28 05:24:20;;;;;;;47.90;22.80;;;;;;;-3.87;76.91;99241.76;104925;1289;61246;-58
2023/11/28 05:27:06;;;;;;;56.90;26.30;;;;;;;-3.85;77.24;99241.30;104930;1289;73282;-58
2023/11/28 05:29:53;;;;;;;49.20;24.00;;;;;;;-3.81;75.53;99235.98;104883;1288;67314;-57
2023/11/28 05:32:39;;;;;;;53.20;25.10;;;;;;;-3.79;76.17;99231.65;104939;1288;71256;-58
2023/11/28 05:35:25;;;;;;;53.00;25.40;;;;;;;-3.76;75.97;99231.36;104899;1288;61714;-59
2023/11/28 05:38:12;;;;;;;53.90;25.40;;;;;;;-3.74;75.24;99232.91;104865;1289;61230;-57
2023/11/28 05:40:59;;;;;;;55.20;25.90;;;;;;;-3.73;75.41;99236.13;104880;1289;73176;-59
2023/11/28 05:43:46;;;;;;;50.70;23.50;;;;;;;-3.73;76.10;99239.16;106328;1289;67570;-59
2023/11/28 05:46:32;;;;;;;57.00;29.00;;;;;;;-3.72;77.06;99235.65;106308;1288;70719;-59
2023/11/28 05:49:17;;;;;;;;;;;;;;;-3.72;77.60;99237.67;106329;1288;59339;-59
2023/11/28 05:52:04;;;;;;;48.10;25.00;;;;;;;-3.72;76.60;99240.53;106377;1289;59830;-59
2023/11/28 05:54:50;;;;;;;43.20;21.90;;;;;;;-3.72;77.91;99243.58;106344;1288;73582;-59
2023/11/28 05:57:36;;;;;;;;;;;;;;;-3.70;77.29;99243.94;106355;1288;66716;-58
2023/11/28 06:00:22;;;;;;;55.90;25.30;;;;;;;-3.68;77.49;99247.52;105827;1288;71387;-56
2023/11/28 06:03:08;;;;;;;46.50;24.00;;;;;;;-3.68;77.46;99246.52;104860;1289;61169;-58
2023/11/28 06:05:54;;;;;;;59.00;26.70;;;;;;;-3.67;77.01;99249.89;104914;1290;63121;-57
2023/11/28 06:08:41;;;;;;;57.80;27.60;;;;;;;-3.65;76.92;99253.30;104991;1289;73298;-57
2023/11/28 06:11:27;;;;;;;60.20;28.10;;;;;;;-3.64;76.39;99253.64;104889;1289;67184;-59
2023/11/28 06:14:13;;;;;;;50.50;24.50;;;;;;;-3.62;76.05;99255.33;104871;1291;73422;-57
2023/11/28 06:17:00;;;;;;;58.50;27.60;;;;;;;-3.61;77.69;99256.02;104945;1288;61292;-59
2023/11/28 06:19:46;;;;;;;53.70;26.40;;;;;;;-3.62;77.17;99256.67;104943;1288;61259;-57
2023/11/28 06:22:33;;;;;;;55.90;26.10;;;;;;;-3.62;76.25;99253.99;105823;1288;73251;-59
2023/11/28 06:25:19;;;;;;;;;;;;;;;-3.60;76.33;99257.22;106339;1289;67400;-58
2023/11/28 06:28:05;;;;;;;58.70;26.60;;;;;;;-3.59;76.31;99256.90;106306;1288;72556;-59
2023/11/28 06:30:51;;;;;;;;;;;;;;;-3.58;75.67;99253.38;106327;1288;59210;-58
2023/11/28 06:33:37;;;;;;;54.30;25.10;;;;;;;-3.58;76.04;99253.06;106269;1288;58951;-59
2023/11/28 06:36:23;;;;;;;;;;;;;;;-3.59;76.74;99255.73;98985;1287;10002299;-59
2023/11/28 06:39:09;;;;;;;53.50;25.30;;;;;;;-3.59;77.19;99253.88;106290;1288;60005;-59
2023/11/28 06:41:56;;;;;;;;;;;;;;;-3.58;76.51;99254.73;106337;1289;61162;-59
2023/11/28 06:44:43;;;;;;;47.30;21.90;;;;;;;-3.59;77.41;99258.44;106317;1288;73373;-59
2023/11/28 06:47:29;;;;;;;49.20;23.80;;;;;;;-3.57;77.05;99257.28;106326;1289;68449;-58
2023/11/28 06:50:15;;;;;;;;;;;;;;;-3.55;76.28;99260.34;106318;1288;72430;-58
2023/11/28 06:53:02;;;;;;;43.40;21.80;;;;;;;-3.54;76.27;99265.77;106292;1288;59221;-59
2023/11/28 06:55:48;;;;;;;37.60;19.70;;;;;;;-3.54;76.46;99266.95;106278;1289;58816;-57
2023/11/28 06:58:34;;;;;;;44.20;22.20;;;;;;;-3.53;76.17;99273.20;106320;1288;74537;-59
2023/11/28 07:01:21;;;;;;;36.80;20.60;;;;;;;-3.52;75.83;99273.38;106337;1288;66896;-58
2023/11/28 07:04:07;;;;;;;38.60;20.90;;;;;;;-3.47;75.67;99286.45;106173;1287;70326;-59
2023/11/28 07:06:54;;;;;;;;;;;;;;;-3.42;75.59;99285.52;106295;1288;58932;-60
2023/11/28 07:09:47;;;;;;;41.20;18.10;;;;;;;-3.40;76.70;99288.26;106252;1288;59265;-59
2023/11/28 07:13:52;;;;;;;36.80;19.70;;;;;;;-3.40;76.04;99288.61;104298;1291;599555;-58
2023/11/28 07:16:38;;;;;;;29.10;15.50;;;;;;;-3.41;75.99;99291.77;104448;1293;63101;-57
2023/11/28 07:19:24;;;;;;;34.10;17.30;;;;;;;-3.42;76.04;99288.22;105928;1291;58873;-57
2023/11/28 07:22:11;;;;;;;33.60;18.10;;;;;;;-3.43;76.46;99288.03;105912;1291;70776;-59
2023/11/28 07:24:57;;;;;;;33.80;19.20;;;;;;;-3.45;76.26;99285.64;105960;1292;67424;-59
2023/11/28 07:27:43;;;;;;;30.70;16.90;;;;;;;-3.44;76.09;99284.48;105787;1289;327517;-57
2023/11/28 07:30:29;;;;;;;30.90;17.50;;;;;;;-3.43;76.56;99285.84;106040;1290;58293;-58
2023/11/28 07:33:15;;;;;;;34.90;18.60;;;;;;;-3.44;76.49;99290.71;106095;1291;58844;-58
2023/11/28 07:36:01;;;;;;;33.20;18.00;;;;;;;-3.41;76.36;99289.08;106052;1290;72015;-58
2023/11/28 07:38:48;;;;;;;;;;;;;;;-3.38;77.08;99284.92;106025;1290;67366;-59
2023/11/28 07:41:35;;;;;;;31.30;17.20;;;;;;;-3.35;76.56;99289.70;106100;1292;72416;-59
2023/11/28 07:44:21;;;;;;;30.00;17.90;;;;;;;-3.31;76.40;99287.59;106052;1290;59742;-58
2023/11/28 07:47:08;;;;;;;31.30;18.00;;;;;;;-3.26;76.16;99290.55;106082;1291;60914;-59
2023/11/28 07:49:54;;;;;;;39.40;19.10;;;;;;;-3.21;76.77;99293.48;106071;1290;71690;-59
2023/11/28 07:52:40;;;;;;;32.10;18.30;;;;;;;-3.12;76.40;99292.29;106057;1291;68762;-59
2023/11/28 07:55:26;;;;;;;;;;;;;;;-3.08;77.09;99287.29;106078;1290;71221;-58
2023/11/28 07:58:13;;;;;;;32.00;16.20;;;;;;;-3.07;77.00;99291.69;106043;1290;58120;-58
2023/11/28 08:01:00;;;;;;;28.70;16.70;;;;;;;-3.04;76.85;99293.75;106065;1290;60052;-59
2023/11/28 08:03:46;;;;;;;38.90;19.10;;;;;;;-2.98;76.20;99294.20;106071;1288;71762;-58
2023/11/28 08:06:34;;;;;;;39.60;21.40;;;;;;;-2.91;76.21;99296.17;106093;1290;67603;-59
2023/11/28 08:09:22;;;;;;;40.80;19.90;;;;;;;-2.88;76.47;99297.40;106021;1291;71432;-59
2023/11/28 08:12:08;;;;;;;36.10;18.80;;;;;;;-2.80;76.78;99301.73;106048;1289;57671;-59
2023/11/28 08:14:54;;;;;;;;;;;;;;;-2.81;77.41;99300.56;106081;1291;59093;-58
2023/11/28 08:17:43;;;;;;;33.20;17.90;;;;;;;-2.86;78.38;99304.86;106061;1291;71879;-59
2023/11/28 08:20:30;;;;;;;40.70;20.30;;;;;;;-2.86;77.14;99309.08;106122;1288;67865;-58
2023/11/28 08:23:16;;;;;;;33.00;18.30;;;;;;;-2.86;77.28;99317.67;106060;1289;71236;-58
2023/11/28 08:26:02;;;;;;;;;;;;;;;-2.84;77.70;99317.38;106027;1289;57435;-58
2023/11/28 08:28:48;;;;;;;39.30;19.10;;;;;;;-2.87;77.54;99318.66;106096;1290;58361;-59
2023/11/28 08:31:34;;;;;;;32.90;17.70;;;;;;;-2.84;77.13;99318.55;106076;1291;72250;-59
2023/11/28 08:34:20;;;;;;;;;;;;;;;-2.76;76.64;99322.73;106160;1291;68512;-56
2023/11/28 08:37:06;;;;;;;37.00;17.10;;;;;;;-2.69;76.50;99325.72;106128;1288;72464;-58
2023/11/28 08:39:53;;;;;;;33.70;17.50;;;;;;;-2.63;76.50;99322.94;106138;1288;58211;-58
2023/11/28 08:42:39;;;;;;;35.40;17.90;;;;;;;-2.57;76.88;99319.80;106193;1290;59052;-59
2023/11/28 08:45:25;;;;;;;37.10;17.30;;;;;;;-2.53;76.80;99321.89;106173;1290;72915;-58
2023/11/28 08:48:11;;;;;;;29.20;16.30;;;;;;;-2.51;76.45;99325.64;106130;1289;67238;-59
2023/11/28 08:50:58;;;;;;;28.20;14.80;;;;;;;-2.47;76.52;99329.58;106161;1288;72390;-58
2023/11/28 08:53:44;;;;;;;30.90;16.00;;;;;;;-2.46;77.33;99329.59;105884;1288;59279;-58
2023/11/28 08:56:30;;;;;;;29.20;16.40;;;;;;;-2.39;76.64;99325.98;104735;1289;61673;-58
2023/11/28 08:59:17;;;;;;;32.70;17.30;;;;;;;-2.30;76.65;99327.98;104780;1289;71601;-58
2023/11/28 09:02:04;;;;;;;32.00;17.10;;;;;;;-2.25;76.52;99325.86;104762;1288;69917;-58
2023/11/28 09:04:50;;;;;;;41.40;21.30;;;;;;;-2.20;76.81;99330.99;104745;1294;72001;-58
2023/11/28 09:07:37;;;;;;;33.30;16.40;;;;;;;-2.16;77.10;99329.54;104776;1288;61547;-57
2023/11/28 09:10:23;;;;;;;29.50;17.00;;;;;;;-2.16;76.99;99328.70;104799;1292;61686;-57
2023/11/28 09:13:10;;;;;;;35.60;19.30;;;;;;;-2.13;76.82;99331.27;104775;1288;72441;-57
2023/11/28 09:15:59;;;;;;;37.40;19.70;;;;;;;-2.07;76.73;99333.70;104799;1291;67783;-57
2023/11/28 09:18:45;;;;;;;40.10;20.90;;;;;;;-1.99;77.09;99335.14;104802;1291;73966;-57
2023/11/28 09:21:31;;;;;;;44.40;22.10;;;;;;;-1.92;76.91;99338.29;104730;1292;59522;-57
2023/11/28 09:24:18;;;;;;;38.40;18.20;;;;;;;-1.86;76.95;99338.02;104753;1289;60776;-56
2023/11/28 09:27:06;;;;;;;31.90;17.40;;;;;;;-1.83;76.87;99331.98;104820;1288;71641;-56
2023/11/28 09:29:53;;;;;;;30.90;16.60;;;;;;;-1.74;76.81;99328.73;104785;1291;68062;-57
2023/11/28 09:32:40;;;;;;;41.00;19.50;;;;;;;-1.70;76.83;99336.38;104758;1292;73154;-58
2023/11/28 09:35:27;;;;;;;31.00;18.00;;;;;;;-1.59;76.74;99336.33;104769;1289;61615;-57
2023/11/28 09:38:13;;;;;;;37.00;18.50;;;;;;;-1.56;76.89;99335.36;104791;1290;60100;-57
2023/11/28 09:41:00;;;;;;;34.20;16.50;;;;;;;-1.48;76.95;99336.78;104771;1288;73563;-56
2023/11/28 09:43:48;;;;;;;27.40;16.10;;;;;;;-1.42;76.93;99332.97;104793;1288;68248;-58
2023/11/28 09:46:36;;;;;;;28.20;16.90;;;;;;;-1.35;76.71;99335.58;104790;1291;71477;-57
2023/11/28 09:49:24;;;;;;;35.80;18.50;;;;;;;-1.28;76.60;99333.97;104776;1288;59809;-58
2023/11/28 09:52:13;;;;;;;34.30;18.40;;;;;;;-1.27;77.12;99331.95;106197;1289;59825;-58
2023/11/28 09:55:00;;;;;;;40.10;19.80;;;;;;;-1.23;76.84;99327.77;106186;1288;72488;-58
2023/11/28 09:57:48;;;;;;;35.20;18.30;;;;;;;-1.13;76.99;99328.55;106184;1289;67423;-57
2023/11/28 10:00:35;;;;;;;44.20;19.90;;;;;;;-1.14;77.00;99330.74;106218;1291;71184;-57
2023/11/28 10:03:21;;;;;;;35.60;18.70;;;;;;;-1.14;76.89;99332.60;106241;1289;59062;-56
2023/11/28 10:06:11;;;;;;;24.90;15.60;;;;;;;-1.14;77.16;99330.58;106356;1287;58881;-56
2023/11/28 10:09:01;;;;;;;38.60;19.60;;;;;;;-1.11;77.11;99329.76;106375;1288;71752;-58
2023/11/28 10:11:53;;;;;;;37.90;19.90;;;;;;;-1.11;77.28;99324.35;106387;1288;67796;-58
2023/11/28 10:14:39;;;;;;;31.00;16.30;;;;;;;-1.03;77.07;99319.84;106393;1289;71297;-58
2023/11/28 10:17:25;;;;;;;27.20;16.10;;;;;;;-0.99;77.07;99319.37;106339;1288;57435;-56
2023/11/28 10:20:11;;;;;;;32.60;18.00;;;;;;;-0.90;76.91;99315.55;106388;1288;58152;-55
2023/11/28 10:22:59;;;;;;;39.30;20.60;;;;;;;-0.77;77.06;99312.63;106345;1289;71655;-56
2023/11/28 10:25:45;;;;;;;38.50;20.80;;;;;;;-0.69;76.95;99309.83;106384;1288;68023;-56
2023/11/28 10:28:33;;;;;;;39.00;20.60;;;;;;;-0.57;77.12;99309.58;106356;1288;71415;-56
2023/11/28 10:31:19;;;;;;;47.20;24.30;;;;;;;-0.46;77.20;99308.95;106337;1288;57676;-56
2023/11/28 10:34:09;;;;;;;85.70;39.20;;;;;;;-0.31;77.17;99308.05;106364;1289;58929;-56
2023/11/28 10:37:00;;;;;;;55.80;27.00;;;;;;;-0.20;77.24;99309.30;106378;1288;72244;-56
2023/11/28 10:39:46;;;;;;;47.00;25.10;;;;;;;-0.20;77.01;99305.92;106373;1288;68320;-57
2023/11/28 10:42:33;;;;;;;46.10;24.40;;;;;;;-0.16;76.93;99304.08;106376;1288;72207;-55
2023/11/28 10:45:19;;;;;;;49.00;28.20;;;;;;;-0.07;77.01;99305.81;106393;1286;57428;-56
2023/11/28 10:48:05;;;;;;;32.20;19.00;;;;;;;0.05;77.14;99304.68;106394;1288;60895;-56
2023/11/28 10:50:54;;;;;;;41.70;23.80;;;;;;;0.10;76.82;99307.73;106352;1288;71689;-55
2023/11/28 10:53:45;;;;;;;46.80;28.60;;;;;;;0.12;77.06;99309.11;106367;1288;67510;-55
2023/11/28 10:56:42;;;;;;;51.90;31.20;;;;;;;0.10;76.97;99303.17;106392;1287;71162;-55
2023/11/28 10:59:35;;;;;;;55.70;32.70;;;;;;;0.03;77.04;99303.64;106355;1288;57605;-55
2023/11/28 11:02:22;;;;;;;49.00;26.60;;;;;;;-0.13;77.05;99303.58;106263;1288;57977;-55
2023/11/28 11:05:10;;;;;;;44.40;25.10;;;;;;;-0.15;77.20;99297.48;106397;1288;74303;-56
2023/11/28 11:07:57;;;;;;;32.50;20.00;;;;;;;-0.17;77.28;99293.40;106399;1285;66208;-57
2023/11/28 11:10:44;;;;;;;50.30;26.50;;;;;;;-0.22;77.28;99292.70;106373;1288;72512;-58
2023/11/28 11:13:37;;;;;;;31.00;17.70;;;;;;;-0.18;77.34;99293.73;106375;1289;57470;-58
2023/11/28 11:16:30;;;;;;;27.30;14.90;;;;;;;-0.07;77.35;99285.49;106398;1288;59020;-56
2023/11/28 11:19:17;;;;;;;30.20;15.80;;;;;;;-0.17;77.23;99284.42;106378;1289;71769;-55
2023/11/28 11:22:09;;;;;;;35.70;19.60;;;;;;;-0.32;77.16;99286.20;106395;1288;68603;-56
2023/11/28 11:24:59;;;;;;;45.10;21.40;;;;;;;-0.41;77.06;99280.71;106364;1288;71244;-57
2023/11/28 11:27:45;;;;;;;40.20;21.40;;;;;;;-0.45;77.39;99279.50;106343;1289;58071;-57
2023/11/28 11:30:38;;;;;;;40.20;20.20;;;;;;;-0.43;77.29;99279.68;106396;1288;61057;-56
2023/11/28 11:33:24;;;;;;;38.90;18.80;;;;;;;-0.40;77.46;99281.58;106303;1288;71767;-56
2023/11/28 11:36:13;;;;;;;33.20;19.20;;;;;;;-0.32;77.49;99277.89;106303;1288;68697;-57
2023/11/28 11:38:59;;;;;;;35.70;19.00;;;;;;;-0.36;77.34;99280.92;106328;1290;72432;-57
2023/11/28 11:41:45;;;;;;;34.60;19.50;;;;;;;-0.45;77.42;99278.83;106370;1289;57493;-56
2023/11/28 11:44:31;;;;;;;38.90;19.60;;;;;;;-0.39;77.62;99280.39;106178;1286;60759;-57
2023/11/28 11:47:26;;;;;;;34.40;17.80;;;;;;;-0.31;77.62;99283.48;106312;1288;72815;-56
2023/11/28 11:50:19;;;;;;;44.80;22.50;;;;;;;-0.32;77.51;99283.48;106345;1289;67436;-56
2023/11/28 11:53:08;;;;;;;31.20;18.40;;;;;;;-0.28;77.58;99285.71;106277;1286;71300;-57
2023/11/28 11:55:54;;;;;;;27.60;17.40;;;;;;;-0.19;77.64;99287.80;106302;1289;58462;-56
2023/11/28 11:58:40;;;;;;;34.80;19.10;;;;;;;-0.16;77.46;99286.13;106290;1288;58853;-57
2023/11/28 12:01:27;;;;;;;;;;;;;;;-0.25;77.45;99286.91;106325;1291;73728;-58
2023/11/28 12:04:14;;;;;;;30.80;17.20;;;;;;;-0.25;77.63;99290.30;106309;1288;67439;-56
2023/11/28 12:07:11;;;;;;;29.50;17.40;;;;;;;-0.15;77.50;99285.62;106339;1291;71360;-57
2023/11/28 12:09:57;;;;;;;33.50;18.70;;;;;;;-0.13;77.40;99284.96;106318;1288;58695;-57
2023/11/28 12:12:43;;;;;;;24.30;15.50;;;;;;;-0.14;77.36;99288.67;106341;1289;59231;-57
2023/11/28 12:15:30;;;;;;;27.90;16.60;;;;;;;-0.24;77.24;99291.66;106291;1291;72614;-57
2023/11/28 12:18:16;;;;;;;25.90;16.30;;;;;;;-0.24;77.43;99291.14;106355;1286;67482;-57
2023/11/28 12:21:04;;;;;;;27.10;17.80;;;;;;;-0.25;77.43;99291.83;106306;1289;72517;-57
2023/11/28 12:23:50;;;;;;;29.30;18.00;;;;;;;-0.17;77.44;99293.23;106320;1290;58126;-57
2023/11/28 12:26:37;;;;;;;26.10;16.40;;;;;;;-0.15;77.41;99297.48;106355;1287;59368;-58
2023/11/28 12:29:25;;;;;;;27.30;17.50;;;;;;;-0.10;77.41;99298.52;106325;1288;74164;-58
2023/11/28 12:32:11;;;;;;;31.60;18.40;;;;;;;-0.12;77.39;99298.34;106319;1289;67403;-57
2023/11/28 12:34:57;;;;;;;28.50;16.10;;;;;;;-0.15;77.42;99301.04;106315;1292;71392;-58
2023/11/28 12:37:49;;;;;;;51.90;25.60;;;;;;;-0.15;77.49;99302.56;106271;1289;58405;-57
2023/11/28 12:40:35;;;;;;;58.30;27.40;;;;;;;-0.22;77.52;99303.36;106353;1288;60065;-56
2023/11/28 12:43:22;;;;;;;80.90;36.10;;;;;;;-0.22;77.57;99303.02;106331;1289;73761;-58
2023/11/28 12:46:08;;;;;;;53.90;27.90;;;;;;;-0.23;77.36;99306.41;106309;1292;68345;-58
2023/11/28 12:48:54;;;;;;;35.50;19.50;;;;;;;-0.26;77.54;99308.23;106317;1290;74495;-57
2023/11/28 12:51:42;;;;;;;27.30;15.30;;;;;;;-0.30;77.47;99314.98;106284;1287;58242;-57
2023/11/28 12:54:28;;;;;;;36.30;18.10;;;;;;;-0.35;77.56;99318.67;106359;1289;60321;-58